createdAt,value
2018-04-25T00:01:23.377Z,88.62
2018-04-25T00:03:51.564Z,82.55
2018-04-25T00:06:19.622Z,85.55
2018-04-25T00:08:47.519Z,85.68
2018-04-25T00:11:16.220Z,89.50
2018-04-25T00:16:18.249Z,89.18
2018-04-25T00:18:46.168Z,87.53
2018-04-25T00:21:14.002Z,86.50
2018-04-25T00:23:42.666Z,87.05
2018-04-25T00:26:10.676Z,87.85
2018-04-25T00:28:38.619Z,84.68
2018-04-25T00:31:06.493Z,86.82
2018-04-25T00:33:34.471Z,83.22
2018-04-25T00:36:03.089Z,85.20
2018-04-25T00:38:31.081Z,85.10
2018-04-25T00:40:59.197Z,84.70
2018-04-25T00:43:27.913Z,86.00
2018-04-25T00:45:55.987Z,84.13
2018-04-25T00:48:23.959Z,86.07
2018-04-25T00:50:51.882Z,86.25
2018-04-25T00:53:20.546Z,87.40
2018-04-25T00:55:48.383Z,82.75
2018-04-25T00:58:16.284Z,84.80
2018-04-25T01:00:44.319Z,86.20
2018-04-25T01:03:12.391Z,84.18
2018-04-25T01:05:40.298Z,85.95
2018-04-25T01:08:08.213Z,82.55
2018-04-25T01:10:36.428Z,84.30
2018-04-25T01:13:04.489Z,83.85
2018-04-25T01:15:32.571Z,83.45
2018-04-25T01:18:00.531Z,83.55
2018-04-25T01:20:28.402Z,84.15
2018-04-25T01:22:56.473Z,83.43
2018-04-25T01:25:33.305Z,86.82
2018-04-25T01:28:08.089Z,83.35
2018-04-25T01:30:37.069Z,83.25
2018-04-25T01:33:05.039Z,85.22
2018-04-25T01:35:32.969Z,84.00
2018-04-25T01:38:06.722Z,84.62
2018-04-25T01:40:34.576Z,84.07
2018-04-25T01:43:09.153Z,85.65
2018-04-25T01:45:52.706Z,84.70
2018-04-25T01:49:12.954Z,87.35
2018-04-25T01:51:53.717Z,85.45
2018-04-25T01:54:34.256Z,87.53
2018-04-25T01:57:14.102Z,83.78
2018-04-25T01:59:53.833Z,85.65
2018-04-25T02:02:21.175Z,87.68
2018-04-25T02:04:49.275Z,87.25
2018-04-25T02:07:17.255Z,89.75
2018-04-25T02:09:45.313Z,86.82
2018-04-25T02:12:13.179Z,84.10
2018-04-25T02:14:41.174Z,87.47
2018-04-25T02:17:09.935Z,84.55
2018-04-25T02:19:37.903Z,86.72
2018-04-25T02:22:05.929Z,85.95
2018-04-25T02:24:33.844Z,85.53
2018-04-25T02:27:01.828Z,85.78
2018-04-25T02:29:29.761Z,87.40
2018-04-25T02:31:57.756Z,85.40
2018-04-25T02:34:25.701Z,88.70
2018-04-25T02:36:53.687Z,85.55
2018-04-25T02:39:21.752Z,90.93
2018-04-25T02:41:49.620Z,87.07
2018-04-25T02:44:17.587Z,91.18
2018-04-25T02:46:45.453Z,87.03
2018-04-25T02:49:13.401Z,89.97
2018-04-25T02:51:41.234Z,87.32
2018-04-25T02:54:09.019Z,87.22
2018-04-25T02:56:36.902Z,86.78
2018-04-25T02:59:04.732Z,86.95
2018-04-25T03:01:32.629Z,87.57
2018-04-25T03:04:00.527Z,84.30
2018-04-25T03:06:28.468Z,89.18
2018-04-25T03:08:56.364Z,84.55
2018-04-25T03:11:24.166Z,87.95
2018-04-25T03:13:51.986Z,88.15
2018-04-25T03:16:19.947Z,89.10
2018-04-25T03:18:47.918Z,87.95
2018-04-25T03:21:15.887Z,87.95
2018-04-25T03:23:44.063Z,85.55
2018-04-25T03:26:12.043Z,86.25
2018-04-25T03:28:39.869Z,90.47
2018-04-25T03:31:07.984Z,86.47
2018-04-25T03:33:35.797Z,85.43
2018-04-25T03:36:03.633Z,90.93
2018-04-25T03:38:32.176Z,89.15
2018-04-25T03:41:00.203Z,90.07
2018-04-25T03:43:28.081Z,91.00
2018-04-25T03:45:55.953Z,88.43
2018-04-25T03:48:23.797Z,90.82
2018-04-25T03:50:51.583Z,88.97
2018-04-25T03:53:19.475Z,91.75
2018-04-25T03:55:47.446Z,89.18
2018-04-25T03:58:15.252Z,89.00
2018-04-25T04:00:43.056Z,90.12
2018-04-25T04:03:10.859Z,89.68
2018-04-25T04:05:39.467Z,91.53
2018-04-25T04:08:07.370Z,88.28
2018-04-25T04:10:35.443Z,89.55
2018-04-25T04:13:03.293Z,91.12
2018-04-25T04:15:31.264Z,88.85
2018-04-25T04:17:59.280Z,91.37
2018-04-25T04:20:27.256Z,91.35
2018-04-25T04:22:56.131Z,88.65
2018-04-25T04:25:23.987Z,92.95
2018-04-25T04:27:51.959Z,89.68
2018-04-25T04:30:19.925Z,94.43
2018-04-25T04:32:47.892Z,88.22
2018-04-25T04:35:15.987Z,91.25
2018-04-25T04:37:44.610Z,89.40
2018-04-25T04:40:12.517Z,91.37
2018-04-25T04:42:40.695Z,91.90
2018-04-25T04:45:10.191Z,89.97
2018-04-25T04:47:37.996Z,91.32
2018-04-25T04:50:06.584Z,90.72
2018-04-25T04:52:34.409Z,91.15
2018-04-25T04:55:02.258Z,90.28
2018-04-25T04:57:30.091Z,92.20
2018-04-25T04:59:57.907Z,89.85
2018-04-25T05:02:25.743Z,93.82
2018-04-25T05:04:53.559Z,88.03
2018-04-25T05:07:22.171Z,93.43
2018-04-25T05:09:49.980Z,89.47
2018-04-25T05:12:17.905Z,91.72
2018-04-25T05:14:45.723Z,90.00
2018-04-25T05:17:13.789Z,88.72
2018-04-25T05:19:41.754Z,91.37
2018-04-25T05:22:09.723Z,92.50
2018-04-25T05:24:37.614Z,89.28
2018-04-25T05:27:05.466Z,91.10
2018-04-25T05:29:33.286Z,89.68
2018-04-25T05:32:01.173Z,92.37
2018-04-25T05:34:28.975Z,96.90
2018-04-25T05:36:57.739Z,94.20
2018-04-25T05:39:25.640Z,97.68
2018-04-25T05:41:54.531Z,93.95
2018-04-25T05:44:23.394Z,96.28
2018-04-25T05:46:51.218Z,96.85
2018-04-25T05:49:19.114Z,100.97
2018-04-25T05:51:47.203Z,105.80
2018-04-25T05:54:15.155Z,102.43
2018-04-25T05:56:43.121Z,103.50
2018-04-25T05:59:11.100Z,104.12
2018-04-25T06:01:39.164Z,104.55
2018-04-25T06:04:07.135Z,105.95
2018-04-25T06:06:35.103Z,104.25
2018-04-25T06:09:03.037Z,106.32
2018-04-25T06:11:30.946Z,101.95
2018-04-25T06:13:58.922Z,102.07
2018-04-25T06:16:26.947Z,101.43
2018-04-25T06:18:54.787Z,99.47
2018-04-25T06:21:22.664Z,103.10
2018-04-25T06:23:50.779Z,103.43
2018-04-25T06:26:18.640Z,102.15
2018-04-25T06:28:46.460Z,98.20
2018-04-25T06:31:14.854Z,99.35
2018-04-25T06:33:43.668Z,102.30
2018-04-25T06:36:11.652Z,105.75
2018-04-25T06:38:39.817Z,103.32
2018-04-25T06:41:07.884Z,101.87
2018-04-25T06:43:35.866Z,93.75
2018-04-25T06:46:03.807Z,95.38
2018-04-25T06:48:31.902Z,96.00
2018-04-25T06:51:00.038Z,97.37
2018-04-25T06:53:28.052Z,95.47
2018-04-25T06:55:55.898Z,95.03
2018-04-25T06:58:23.760Z,95.35
2018-04-25T07:00:51.681Z,93.37
2018-04-25T07:03:19.494Z,94.68
2018-04-25T07:05:47.350Z,93.20
2018-04-25T07:08:15.296Z,93.97
2018-04-25T07:10:43.910Z,91.90
2018-04-25T07:13:11.806Z,94.05
2018-04-25T07:15:40.429Z,92.78
2018-04-25T07:18:08.595Z,95.32
2018-04-25T07:20:36.606Z,89.53
2018-04-25T07:23:04.454Z,91.57
2018-04-25T07:25:32.290Z,94.60
2018-04-25T07:28:00.118Z,92.37
2018-04-25T07:30:27.997Z,92.55
2018-04-25T07:32:56.613Z,93.30
2018-04-25T07:35:24.592Z,93.72
2018-04-25T07:37:53.211Z,91.03
2018-04-25T07:40:21.025Z,92.97
2018-04-25T07:42:48.858Z,91.93
2018-04-25T07:45:16.761Z,93.68
2018-04-25T07:47:44.591Z,92.60
2018-04-25T07:50:12.489Z,88.43
2018-04-25T07:52:40.481Z,89.05
2018-04-25T07:55:08.304Z,93.80
2018-04-25T08:08:43.894Z,92.97
2018-04-25T08:11:11.748Z,90.03
2018-04-25T08:13:51.603Z,87.12
2018-04-25T08:16:31.537Z,90.80
2018-04-25T08:19:20.204Z,89.95
2018-04-25T08:21:48.198Z,87.55
2018-04-25T08:24:16.857Z,91.30
2018-04-25T08:26:44.828Z,90.10
2018-04-25T08:29:12.723Z,96.03
2018-04-25T08:31:41.496Z,93.37
2018-04-25T08:34:09.334Z,84.97
2018-04-25T08:36:38.031Z,90.07
2018-04-25T08:39:06.007Z,88.97
2018-04-25T08:41:34.790Z,88.62
2018-04-25T08:44:02.845Z,87.37
2018-04-25T08:46:30.889Z,93.32
2018-04-25T08:48:58.901Z,87.25
2018-04-25T08:51:26.867Z,90.57
2018-04-25T08:53:54.799Z,89.70
2018-04-25T08:56:23.636Z,89.75
2018-04-25T08:58:52.311Z,87.05
2018-04-25T09:01:20.172Z,91.90
2018-04-25T09:03:48.063Z,95.12
2018-04-25T09:06:16.863Z,93.80
2018-04-25T09:08:45.718Z,91.90
2018-04-25T09:11:13.548Z,93.10
2018-04-25T09:13:41.554Z,91.63
2018-04-25T09:16:09.485Z,90.38
2018-04-25T09:18:37.518Z,91.55
2018-04-25T09:21:06.175Z,93.03
2018-04-25T09:23:34.051Z,89.20
2018-04-25T09:26:02.005Z,86.07
2018-04-25T09:28:29.983Z,90.82
2018-04-25T09:30:57.953Z,86.82
2018-04-25T09:33:26.630Z,91.65
2018-04-25T09:35:54.584Z,88.43
2018-04-25T09:38:22.577Z,91.20
2018-04-25T09:40:50.550Z,89.55
2018-04-25T09:43:19.227Z,92.05
2018-04-25T09:45:47.295Z,89.13
2018-04-25T09:48:15.157Z,90.18
2018-04-25T09:50:43.245Z,89.50
2018-04-25T09:53:11.318Z,88.55
2018-04-25T09:55:39.269Z,91.32
2018-04-25T09:58:07.340Z,90.70
2018-04-25T10:00:40.837Z,90.00
2018-04-25T10:03:14.547Z,86.72
2018-04-25T10:05:43.228Z,87.88
2018-04-25T10:08:11.099Z,90.70
2018-04-25T10:10:39.063Z,87.50
2018-04-25T10:13:07.089Z,85.12
2018-04-25T10:15:34.955Z,88.50
2018-04-25T10:18:02.757Z,89.97
2018-04-25T10:20:30.556Z,87.37
2018-04-25T10:22:59.145Z,89.45
2018-04-25T10:25:27.792Z,89.43
2018-04-25T10:27:55.764Z,88.80
2018-04-25T10:30:23.836Z,92.18
2018-04-25T10:32:51.702Z,86.20
2018-04-25T10:35:19.668Z,92.47
2018-04-25T10:37:47.533Z,88.18
2018-04-25T10:40:15.406Z,90.40
2018-04-25T10:42:44.807Z,91.03
2018-04-25T10:45:12.684Z,90.30
2018-04-25T10:47:40.741Z,87.72
2018-04-25T10:50:08.813Z,89.70
2018-04-25T10:52:37.495Z,90.40
2018-04-25T10:55:05.367Z,88.70
2018-04-25T10:57:34.044Z,89.72
2018-04-25T11:00:02.836Z,87.45
2018-04-25T11:02:31.596Z,87.57
2018-04-25T11:04:59.487Z,89.55
2018-04-25T11:07:27.430Z,95.40
2018-04-25T11:09:55.321Z,87.30
2018-04-25T11:12:23.187Z,88.45
2018-04-25T11:14:51.263Z,88.30
2018-04-25T11:17:19.134Z,89.62
2018-04-25T11:19:46.990Z,90.32
2018-04-25T11:22:14.855Z,92.35
2018-04-25T11:24:42.725Z,85.95
2018-04-25T11:27:10.696Z,88.72
2018-04-25T11:29:38.560Z,83.75
2018-04-25T11:32:06.424Z,84.62
2018-04-25T11:34:34.291Z,87.53
2018-04-25T11:37:02.157Z,79.00
2018-04-25T11:39:30.022Z,87.22
2018-04-25T11:41:57.895Z,86.87
2018-04-25T11:44:25.751Z,83.80
2018-04-25T11:46:53.618Z,82.70
2018-04-25T11:49:21.488Z,84.97
2018-04-25T11:51:49.353Z,82.80
2018-04-25T11:54:17.220Z,83.75
2018-04-25T11:56:45.288Z,82.68
2018-04-25T11:59:13.156Z,80.68
2018-04-25T12:01:41.130Z,84.45
2018-04-25T12:04:09.177Z,81.00
2018-04-25T12:06:37.059Z,81.72
2018-04-25T12:09:05.028Z,78.75
2018-04-25T12:11:32.862Z,78.22
2018-04-25T12:14:00.762Z,89.05
2018-04-25T12:16:28.728Z,86.97
2018-04-25T12:18:56.518Z,86.68
2018-04-25T12:21:25.051Z,82.68
2018-04-25T12:23:52.945Z,82.12
2018-04-25T12:26:20.880Z,87.22
2018-04-25T12:28:48.774Z,86.00
2018-04-25T12:31:16.640Z,87.78
2018-04-25T12:33:44.506Z,89.72
2018-04-25T12:36:12.293Z,85.50
2018-04-25T12:38:40.105Z,86.30
2018-04-25T12:41:07.971Z,85.32
2018-04-25T12:43:35.773Z,84.40
2018-04-25T12:46:03.594Z,86.72
2018-04-25T12:48:31.360Z,86.65
2018-04-25T12:50:59.192Z,86.50
2018-04-25T12:53:27.848Z,91.47
2018-04-25T12:55:55.715Z,87.43
2018-04-25T12:58:23.581Z,93.37
2018-04-25T13:00:51.649Z,87.82
2018-04-25T13:03:19.617Z,90.68
2018-04-25T13:05:47.484Z,88.15
2018-04-25T13:08:15.351Z,87.90
2018-04-25T13:10:44.037Z,88.50
2018-04-25T13:13:11.900Z,87.15
2018-04-25T13:15:39.767Z,89.15
2018-04-25T13:18:07.605Z,87.22
2018-04-25T13:20:35.607Z,86.57
2018-04-25T13:23:03.468Z,84.80
2018-04-25T13:25:31.436Z,87.05
2018-04-25T13:27:59.307Z,90.97
2018-04-25T13:30:27.337Z,87.75
2018-04-25T13:32:55.242Z,89.10
2018-04-25T13:35:23.104Z,88.32
2018-04-25T13:37:51.820Z,87.15
2018-04-25T13:40:20.584Z,89.40
2018-04-25T13:42:49.267Z,86.82
2018-04-25T13:45:17.131Z,88.25
2018-04-25T13:47:45.818Z,89.32
2018-04-25T13:50:13.684Z,90.57
2018-04-25T13:52:41.625Z,85.93
2018-04-25T13:55:09.434Z,87.05
2018-04-25T13:57:37.225Z,86.95
2018-04-25T14:00:05.145Z,86.63
2018-04-25T14:02:32.928Z,88.05
2018-04-25T14:05:00.876Z,89.37
2018-04-25T14:07:28.743Z,85.18
2018-04-25T14:09:56.611Z,83.55
2018-04-25T14:12:24.401Z,86.85
2018-04-25T14:14:52.988Z,85.38
2018-04-25T14:17:21.526Z,87.45
2018-04-25T14:19:49.334Z,86.53
2018-04-25T14:22:17.916Z,88.07
2018-04-25T14:24:46.501Z,84.95
2018-04-25T14:27:15.155Z,86.95
2018-04-25T14:29:43.020Z,85.53
2018-04-25T14:32:10.941Z,85.90
2018-04-25T14:34:38.772Z,87.82
2018-04-25T14:37:07.545Z,86.25
2018-04-25T14:39:35.411Z,86.35
2018-04-25T14:42:03.266Z,88.50
2018-04-25T14:44:31.071Z,87.62
2018-04-25T14:46:59.719Z,89.50
2018-04-25T14:49:27.590Z,87.40
2018-04-25T14:51:56.273Z,84.90
2018-04-25T14:54:24.140Z,90.62
2018-04-25T14:56:52.010Z,88.12
2018-04-25T14:59:19.972Z,88.55
2018-04-25T15:01:47.837Z,87.50
2018-04-25T15:04:15.709Z,88.55
2018-04-25T15:06:43.577Z,86.20
2018-04-25T15:09:11.615Z,88.40
2018-04-25T15:11:39.506Z,88.40
2018-04-25T15:14:08.397Z,88.60
2018-04-25T15:16:36.263Z,89.85
2018-04-25T15:19:04.132Z,88.68
2018-04-25T15:21:31.996Z,88.10
2018-04-25T15:23:59.969Z,85.90
2018-04-25T15:26:27.798Z,91.87
2018-04-25T15:28:55.576Z,87.15
2018-04-25T15:31:23.380Z,91.93
2018-04-25T15:33:51.944Z,88.68
2018-04-25T15:36:19.908Z,94.28
2018-04-25T15:38:47.730Z,92.97
2018-04-25T15:41:15.518Z,91.63
2018-04-25T15:43:43.294Z,90.07
2018-04-25T15:46:11.457Z,92.00
2018-04-25T15:48:39.313Z,92.20
2018-04-25T15:51:07.211Z,91.85
2018-04-25T15:53:35.061Z,90.32
2018-04-25T15:56:03.702Z,90.95
2018-04-25T15:58:31.477Z,91.03
2018-04-25T16:00:59.270Z,90.78
2018-04-25T16:03:27.159Z,96.50
2018-04-25T16:05:55.019Z,86.68
2018-04-25T16:08:23.104Z,93.47
2018-04-25T16:10:51.779Z,90.72
2018-04-25T16:13:19.808Z,92.93
2018-04-25T16:15:47.717Z,89.37
2018-04-25T16:18:15.680Z,91.22
2018-04-25T16:20:43.652Z,91.30
2018-04-25T16:23:11.521Z,89.82
2018-04-25T16:25:40.918Z,89.80
2018-04-25T16:28:08.712Z,87.97
2018-04-25T16:30:37.365Z,89.18
2018-04-25T16:33:05.233Z,92.57
2018-04-25T16:35:33.098Z,90.75
2018-04-25T16:38:01.065Z,90.43
2018-04-25T16:40:28.901Z,90.45
2018-04-25T16:42:56.755Z,86.95
2018-04-25T16:45:24.770Z,88.68
2018-04-25T16:47:52.654Z,85.00
2018-04-25T16:50:21.228Z,86.78
2018-04-25T16:52:49.022Z,85.95
2018-04-25T16:55:17.601Z,88.72
2018-04-25T16:57:46.149Z,86.97
2018-04-25T17:00:13.945Z,86.35
2018-04-25T17:02:42.559Z,87.55
2018-04-25T17:05:10.344Z,85.70
2018-04-25T17:07:38.127Z,85.82
2018-04-25T17:10:05.919Z,86.25
2018-04-25T17:12:34.462Z,89.22
2018-04-25T17:15:02.349Z,90.03
2018-04-25T17:17:30.920Z,84.70
2018-04-25T17:42:41.599Z,80.05
2018-04-25T17:45:09.505Z,82.03
2018-04-25T17:47:37.271Z,78.37
2018-04-25T17:50:05.432Z,81.18
2018-04-25T17:52:33.410Z,79.95
2018-04-25T17:55:01.224Z,80.75
2018-04-25T17:57:29.211Z,83.50
2018-04-25T17:59:57.181Z,81.12
2018-04-25T18:02:25.056Z,82.32
2018-04-25T18:04:52.938Z,82.65
2018-04-25T18:07:20.811Z,84.53
2018-04-25T18:09:48.775Z,80.60
2018-04-25T18:12:16.595Z,87.20
2018-04-25T18:14:44.358Z,98.30
2018-04-25T18:17:12.485Z,104.40
2018-04-25T18:19:40.337Z,107.60
2018-04-25T18:22:08.161Z,114.35
2018-04-25T18:24:36.073Z,106.80
2018-04-25T18:27:04.004Z,105.12
2018-04-25T18:29:32.008Z,103.05
2018-04-25T18:31:59.978Z,102.03
2018-04-25T18:34:27.959Z,99.10
2018-04-25T18:36:55.814Z,94.30
2018-04-25T18:39:23.677Z,90.65
2018-04-25T18:41:51.648Z,90.07
2018-04-25T18:44:19.513Z,90.25
2018-04-25T18:46:47.377Z,86.07
2018-04-25T18:49:15.261Z,90.20
2018-04-25T18:51:43.218Z,84.45
2018-04-25T18:54:11.078Z,83.20
2018-04-25T18:56:38.943Z,81.03
2018-04-25T18:59:06.813Z,83.45
2018-04-25T19:01:34.610Z,81.00
2018-04-25T19:04:03.262Z,82.32
2018-04-25T19:06:31.126Z,84.18
2018-04-25T19:08:58.951Z,83.43
2018-04-25T19:11:26.710Z,84.50
2018-04-25T19:13:54.623Z,80.40
2018-04-25T19:16:22.491Z,85.20
2018-04-25T19:18:50.562Z,82.10
2018-04-25T19:21:18.425Z,84.68
2018-04-25T19:23:46.289Z,82.80
2018-04-25T19:26:14.161Z,80.97
2018-04-25T19:28:42.227Z,82.55
2018-04-25T19:31:10.311Z,82.62
2018-04-25T19:33:38.316Z,82.10
2018-04-25T19:36:06.345Z,81.35
2018-04-25T19:38:34.530Z,85.93
2018-04-25T19:41:03.315Z,83.97
2018-04-25T19:43:31.699Z,82.32
2018-04-25T19:46:00.517Z,82.22
2018-04-25T19:48:29.060Z,85.35
2018-04-25T19:50:57.821Z,80.72
2018-04-25T19:53:26.366Z,81.53
2018-04-25T19:55:54.811Z,84.22
2018-04-25T19:58:22.885Z,85.20
2018-04-25T20:00:51.235Z,81.87
2018-04-25T20:03:19.253Z,85.78
2018-04-25T20:05:47.926Z,84.27
2018-04-25T20:08:16.587Z,84.05
2018-04-25T20:10:44.552Z,88.47
2018-04-25T20:13:12.520Z,78.85
2018-04-25T20:15:40.503Z,81.93
2018-04-25T20:18:08.459Z,82.90
2018-04-25T20:20:36.425Z,85.53
2018-04-25T20:23:04.496Z,80.95
2018-04-25T20:25:32.471Z,83.03
2018-04-25T20:28:00.540Z,85.20
2018-04-25T20:30:30.043Z,86.05
2018-04-25T20:32:58.008Z,81.93
2018-04-25T20:35:25.875Z,81.53
2018-04-25T20:37:53.743Z,82.40
2018-04-25T20:40:21.608Z,82.47
2018-04-25T20:42:49.478Z,81.65
2018-04-25T20:45:17.340Z,80.55
2018-04-25T20:47:45.166Z,77.32
2018-04-25T20:50:13.182Z,81.85
2018-04-25T20:52:41.042Z,80.80
2018-04-25T20:55:08.908Z,78.82
2018-04-25T20:57:36.776Z,78.57
2018-04-25T21:00:04.742Z,80.75
2018-04-25T21:02:32.622Z,104.38
2018-04-25T21:05:01.294Z,85.78
2018-04-25T21:07:29.160Z,85.28
2018-04-25T21:09:57.082Z,82.70
2018-04-25T21:12:24.992Z,82.28
2018-04-25T21:14:52.871Z,80.60
2018-04-25T21:17:20.729Z,79.82
2018-04-25T21:19:49.204Z,79.47
2018-04-25T21:22:17.175Z,80.20
2018-04-25T21:24:45.249Z,79.00
2018-04-25T21:27:13.217Z,81.50
2018-04-25T21:29:41.180Z,78.57
2018-04-25T21:32:09.006Z,131.23
2018-04-25T21:34:36.914Z,126.35
2018-04-25T21:37:04.782Z,83.43
2018-04-25T21:39:32.647Z,83.07
2018-04-25T21:42:00.513Z,83.50
2018-04-25T21:44:29.208Z,82.50
2018-04-25T21:46:57.062Z,77.65
2018-04-25T21:49:24.933Z,85.57
2018-04-25T21:51:52.796Z,80.40
2018-04-25T21:54:20.665Z,83.47
2018-04-25T21:56:48.631Z,82.30
2018-04-25T21:59:16.499Z,85.12
2018-04-25T22:01:44.370Z,83.18
2018-04-25T22:04:12.333Z,82.80
2018-04-25T22:06:40.166Z,81.25
2018-04-25T22:09:08.063Z,81.85
2018-04-25T22:11:36.343Z,83.93
2018-04-25T22:14:04.208Z,86.78
2018-04-25T22:16:32.157Z,85.95
2018-04-25T22:21:28.931Z,83.25
2018-04-25T22:23:56.800Z,80.07
2018-04-25T22:26:24.664Z,83.85
2018-04-25T22:28:52.529Z,82.25
2018-04-25T22:31:20.553Z,80.55
2018-04-25T22:33:48.473Z,82.20
2018-04-25T22:36:16.336Z,80.43
2018-04-25T22:38:44.200Z,82.12
2018-04-25T22:41:12.165Z,79.60
2018-04-25T22:43:40.033Z,81.00
2018-04-25T22:46:07.983Z,81.07
2018-04-25T22:48:36.686Z,82.60
2018-04-25T22:51:04.552Z,81.12
2018-04-25T22:53:32.419Z,81.90
2018-04-25T22:56:00.390Z,81.22
2018-04-25T22:58:28.379Z,83.55
2018-04-25T23:00:56.221Z,83.78
2018-04-25T23:03:24.192Z,83.45
2018-04-25T23:05:52.059Z,80.78
2018-04-25T23:08:20.037Z,82.45
2018-04-25T23:10:48.001Z,83.28
2018-04-25T23:13:15.813Z,82.72
2018-04-25T23:15:43.694Z,81.97
2018-04-25T23:18:11.693Z,80.10
2018-04-25T23:20:39.663Z,83.78
2018-04-25T23:23:07.734Z,81.72
2018-04-25T23:25:35.664Z,82.40
2018-04-25T23:28:03.568Z,83.35
2018-04-25T23:30:31.434Z,85.25
2018-04-25T23:32:59.512Z,83.03
2018-04-25T23:35:27.373Z,83.12
2018-04-25T23:37:55.194Z,84.53
2018-04-25T23:40:23.103Z,80.80
2018-04-25T23:42:50.972Z,84.07
2018-04-25T23:45:18.837Z,81.05
2018-04-25T23:47:46.702Z,82.25
2018-04-25T23:50:14.572Z,82.80
2018-04-25T23:52:42.439Z,82.07
2018-04-25T23:55:10.405Z,81.30
2018-04-25T23:57:38.272Z,81.47
